Plano, Texas
Current Conditions -  °F | °C
As of 4:55 AM on Saturday 25 Oct 2014 (Local Time) from KADS Reporting Station
Clear Clear  
Wind Chill: 66°   Ceiling: Unl
Heat Index: 66°   Visibility: 10mi
Dew Point: 60°   Wind: 6mph
Humidity: 81%   Direction: 170°S
Pressure: 30.12"   Gusts: NA
Location:  33.02°N, 96.7°W
Report Text: KADS 250955Z AUTO 17005KT 10SM CLR 19/16 A3012 RMK AO2 T01900157
Loading
Personal Weather Stations






























Interactive Weather Map
Tropical Storm Tracking
New forecast layout! Learn more

10-Day Weather Forecast

Advertisements
Track Severe Weather on mobile